SBGL/GIG METAR and TAF weather

Enter ICAO airport designator
Station Type Date Time Source
SBGL METAR 2020/02/25 12:00 UTC NOAA

SBGL 251200Z VRB02KT 9999 FEW009 BKN100 26/22 Q1013


Station Type Date Time Source
SBGL Decoded METAR 2020/02/25 12:00 UTC NOAA

Galeao, Brazil (SBGL) 22-49S 043-15W 42M
Feb 25, 2020 - 07:00 AM EST / 2020.02.25 1200 UTC
Wind: Variable at 2 MPH (2 KT):0
Visibility: greater than 7 mile(s):0
Sky conditions: mostly cloudy
Temperature: 78 F (26 C)
Dew Point: 71 F (22 C)
Relative Humidity: 78%
Pressure (altimeter): 29.91 in. Hg (1013 hPa)
ob: SBGL 251200Z VRB02KT 9999 FEW009 BKN100 26/22 Q1013
cycle: 12

Station Type Date Time Source
SBGL TAF 2020/02/25 12:15 UTC NOAA

TAF SBGL 250900Z 2512/2618 34005KT 9999 SCT015 TN23/2609Z TX34/2617Z
BECMG 2514/2516 14010KT
BECMG 2518/2520 FEW025 FEW030TCU PROB30 2521/2524 TS SCT025 FEW030CB
BECMG 2600/2602 34005KT FEW025
BECMG 2615/2617 05010KT
RMK PHI

Example: see airport list